sensor_id;sensor_type;location;lat;lon;timestamp;P1;durP1;ratioP1;P2;durP2;ratioP2
23376;SDS011;14353;46.070;13.222;2023-01-23T00:01:47;2.33;;;1.95;;
23376;SDS011;14353;46.070;13.222;2023-01-23T00:04:14;2.20;;;2.00;;
23376;SDS011;14353;46.070;13.222;2023-01-23T00:06:40;2.10;;;1.90;;
23376;SDS011;14353;46.070;13.222;2023-01-23T00:09:07;2.30;;;2.00;;
23376;SDS011;14353;46.070;13.222;2023-01-23T00:11:34;2.30;;;2.10;;
23376;SDS011;14353;46.070;13.222;2023-01-23T00:14:00;2.30;;;2.10;;
23376;SDS011;14353;46.070;13.222;2023-01-23T00:16:28;2.20;;;2.00;;
23376;SDS011;14353;46.070;13.222;2023-01-23T00:18:55;2.20;;;2.00;;
23376;SDS011;14353;46.070;13.222;2023-01-23T00:21:22;2.50;;;2.00;;
23376;SDS011;14353;46.070;13.222;2023-01-23T00:23:51;2.88;;;2.47;;
23376;SDS011;14353;46.070;13.222;2023-01-23T00:26:22;2.70;;;2.10;;
23376;SDS011;14353;46.070;13.222;2023-01-23T00:28:50;2.42;;;2.00;;
23376;SDS011;14353;46.070;13.222;2023-01-23T00:31:17;2.90;;;2.10;;
23376;SDS011;14353;46.070;13.222;2023-01-23T00:33:45;2.60;;;2.10;;
23376;SDS011;14353;46.070;13.222;2023-01-23T00:36:11;3.03;;;2.17;;
23376;SDS011;14353;46.070;13.222;2023-01-23T00:38:38;2.45;;;2.25;;
23376;SDS011;14353;46.070;13.222;2023-01-23T00:41:04;2.85;;;2.35;;
23376;SDS011;14353;46.070;13.222;2023-01-23T00:43:30;2.80;;;2.20;;
23376;SDS011;14353;46.070;13.222;2023-01-23T00:45:56;2.88;;;2.20;;
23376;SDS011;14353;46.070;13.222;2023-01-23T00:48:22;2.53;;;2.00;;
23376;SDS011;14353;46.070;13.222;2023-01-23T00:50:48;2.35;;;2.05;;
23376;SDS011;14353;46.070;13.222;2023-01-23T00:53:14;2.92;;;2.50;;
23376;SDS011;14353;46.070;13.222;2023-01-23T00:55:40;3.13;;;2.40;;
23376;SDS011;14353;46.070;13.222;2023-01-23T00:58:06;2.75;;;2.40;;
23376;SDS011;14353;46.070;13.222;2023-01-23T01:00:33;2.38;;;2.17;;
23376;SDS011;14353;46.070;13.222;2023-01-23T01:03:00;3.03;;;2.17;;
23376;SDS011;14353;46.070;13.222;2023-01-23T01:05:26;2.72;;;2.35;;
23376;SDS011;14353;46.070;13.222;2023-01-23T01:07:52;2.90;;;2.45;;
23376;SDS011;14353;46.070;13.222;2023-01-23T01:10:18;2.58;;;2.25;;
23376;SDS011;14353;46.070;13.222;2023-01-23T01:12:43;2.70;;;2.40;;
23376;SDS011;14353;46.070;13.222;2023-01-23T01:15:11;2.72;;;2.47;;
23376;SDS011;14353;46.070;13.222;2023-01-23T01:17:37;2.83;;;2.25;;
23376;SDS011;14353;46.070;13.222;2023-01-23T01:20:03;2.90;;;2.60;;
23376;SDS011;14353;46.070;13.222;2023-01-23T01:22:30;3.00;;;2.65;;
23376;SDS011;14353;46.070;13.222;2023-01-23T01:24:56;2.85;;;2.55;;
23376;SDS011;14353;46.070;13.222;2023-01-23T01:27:22;2.97;;;2.30;;
23376;SDS011;14353;46.070;13.222;2023-01-23T01:29:48;2.58;;;2.35;;
23376;SDS011;14353;46.070;13.222;2023-01-23T01:32:14;3.28;;;2.67;;
23376;SDS011;14353;46.070;13.222;2023-01-23T01:34:40;2.95;;;2.65;;
23376;SDS011;14353;46.070;13.222;2023-01-23T01:37:06;3.00;;;2.42;;
23376;SDS011;14353;46.070;13.222;2023-01-23T01:39:31;3.55;;;2.85;;
23376;SDS011;14353;46.070;13.222;2023-01-23T01:41:57;2.65;;;2.40;;
23376;SDS011;14353;46.070;13.222;2023-01-23T01:44:23;2.78;;;2.42;;
23376;SDS011;14353;46.070;13.222;2023-01-23T01:46:49;3.15;;;2.65;;
23376;SDS011;14353;46.070;13.222;2023-01-23T01:49:22;2.70;;;2.38;;
23376;SDS011;14353;46.070;13.222;2023-01-23T01:52:04;2.92;;;2.45;;
23376;SDS011;14353;46.070;13.222;2023-01-23T01:54:39;3.05;;;2.40;;
23376;SDS011;14353;46.070;13.222;2023-01-23T02:02:21;3.85;;;2.75;;
23376;SDS011;14353;46.070;13.222;2023-01-23T02:04:52;3.30;;;2.72;;
23376;SDS011;14353;46.070;13.222;2023-01-23T02:07:26;3.20;;;2.80;;
23376;SDS011;14353;46.070;13.222;2023-01-23T02:09:56;3.63;;;2.75;;
23376;SDS011;14353;46.070;13.222;2023-01-23T02:12:23;3.05;;;2.60;;
23376;SDS011;14353;46.070;13.222;2023-01-23T02:14:51;2.90;;;2.63;;
23376;SDS011;14353;46.070;13.222;2023-01-23T02:17:17;3.10;;;2.70;;
23376;SDS011;14353;46.070;13.222;2023-01-23T02:27:40;2.60;;;2.40;;
23376;SDS011;14353;46.070;13.222;2023-01-23T02:30:05;3.28;;;2.90;;
23376;SDS011;14353;46.070;13.222;2023-01-23T02:32:32;3.30;;;2.70;;
23376;SDS011;14353;46.070;13.222;2023-01-23T02:35:00;2.80;;;2.42;;
23376;SDS011;14353;46.070;13.222;2023-01-23T02:37:32;3.33;;;2.70;;
23376;SDS011;14353;46.070;13.222;2023-01-23T02:39:59;3.65;;;2.72;;
23376;SDS011;14353;46.070;13.222;2023-01-23T02:42:27;3.03;;;2.65;;
23376;SDS011;14353;46.070;13.222;2023-01-23T02:44:54;3.17;;;2.88;;
23376;SDS011;14353;46.070;13.222;2023-01-23T02:47:22;3.60;;;2.97;;
23376;SDS011;14353;46.070;13.222;2023-01-23T02:49:48;3.53;;;2.70;;
23376;SDS011;14353;46.070;13.222;2023-01-23T02:52:14;2.85;;;2.55;;
23376;SDS011;14353;46.070;13.222;2023-01-23T02:54:40;3.08;;;2.70;;
23376;SDS011;14353;46.070;13.222;2023-01-23T02:57:05;3.72;;;2.58;;
23376;SDS011;14353;46.070;13.222;2023-01-23T02:59:31;3.13;;;2.67;;
23376;SDS011;14353;46.070;13.222;2023-01-23T03:04:41;4.10;;;2.90;;
23376;SDS011;14353;46.070;13.222;2023-01-23T03:07:07;2.97;;;2.42;;
23376;SDS011;14353;46.070;13.222;2023-01-23T03:09:32;3.05;;;2.35;;
23376;SDS011;14353;46.070;13.222;2023-01-23T03:11:58;3.53;;;2.70;;
23376;SDS011;14353;46.070;13.222;2023-01-23T03:14:24;2.88;;;2.60;;
23376;SDS011;14353;46.070;13.222;2023-01-23T03:16:50;3.55;;;2.80;;
23376;SDS011;14353;46.070;13.222;2023-01-23T03:19:18;2.80;;;2.40;;
23376;SDS011;14353;46.070;13.222;2023-01-23T03:21:47;3.03;;;2.55;;
23376;SDS011;14353;46.070;13.222;2023-01-23T03:24:13;3.17;;;2.88;;
23376;SDS011;14353;46.070;13.222;2023-01-23T03:26:40;2.88;;;2.42;;
23376;SDS011;14353;46.070;13.222;2023-01-23T03:29:09;2.95;;;2.40;;
23376;SDS011;14353;46.070;13.222;2023-01-23T03:32:02;3.30;;;2.58;;
23376;SDS011;14353;46.070;13.222;2023-01-23T03:34:28;3.95;;;2.33;;
23376;SDS011;14353;46.070;13.222;2023-01-23T03:36:54;2.75;;;2.53;;
23376;SDS011;14353;46.070;13.222;2023-01-23T03:39:20;2.90;;;2.35;;
23376;SDS011;14353;46.070;13.222;2023-01-23T03:42:04;2.58;;;2.38;;
23376;SDS011;14353;46.070;13.222;2023-01-23T03:44:30;3.13;;;2.60;;
23376;SDS011;14353;46.070;13.222;2023-01-23T03:46:56;2.58;;;2.30;;
23376;SDS011;14353;46.070;13.222;2023-01-23T03:49:22;3.03;;;2.30;;
23376;SDS011;14353;46.070;13.222;2023-01-23T03:51:48;2.83;;;2.50;;
23376;SDS011;14353;46.070;13.222;2023-01-23T03:54:13;2.70;;;2.28;;
23376;SDS011;14353;46.070;13.222;2023-01-23T03:56:40;2.40;;;2.20;;
23376;SDS011;14353;46.070;13.222;2023-01-23T03:59:06;3.30;;;2.60;;
23376;SDS011;14353;46.070;13.222;2023-01-23T04:01:32;2.85;;;2.53;;
23376;SDS011;14353;46.070;13.222;2023-01-23T04:03:59;2.83;;;2.30;;
23376;SDS011;14353;46.070;13.222;2023-01-23T04:06:25;2.42;;;2.20;;
23376;SDS011;14353;46.070;13.222;2023-01-23T04:08:51;3.30;;;2.50;;
23376;SDS011;14353;46.070;13.222;2023-01-23T04:11:16;2.60;;;2.33;;
23376;SDS011;14353;46.070;13.222;2023-01-23T04:13:44;2.35;;;2.13;;
23376;SDS011;14353;46.070;13.222;2023-01-23T04:16:11;2.80;;;2.40;;
23376;SDS011;14353;46.070;13.222;2023-01-23T04:18:37;2.70;;;2.30;;
23376;SDS011;14353;46.070;13.222;2023-01-23T04:21:03;2.50;;;2.30;;
23376;SDS011;14353;46.070;13.222;2023-01-23T04:23:29;2.67;;;2.20;;
23376;SDS011;14353;46.070;13.222;2023-01-23T04:25:55;2.50;;;2.30;;
23376;SDS011;14353;46.070;13.222;2023-01-23T04:28:21;2.67;;;2.40;;
23376;SDS011;14353;46.070;13.222;2023-01-23T04:30:48;2.70;;;2.20;;
23376;SDS011;14353;46.070;13.222;2023-01-23T04:33:15;2.80;;;2.30;;
23376;SDS011;14353;46.070;13.222;2023-01-23T04:35:47;2.42;;;2.22;;
23376;SDS011;14353;46.070;13.222;2023-01-23T04:38:24;2.95;;;2.40;;
23376;SDS011;14353;46.070;13.222;2023-01-23T04:40:51;3.00;;;2.50;;
23376;SDS011;14353;46.070;13.222;2023-01-23T04:43:17;2.38;;;2.00;;
23376;SDS011;14353;46.070;13.222;2023-01-23T04:45:43;2.40;;;2.20;;
23376;SDS011;14353;46.070;13.222;2023-01-23T04:48:10;2.65;;;2.40;;
23376;SDS011;14353;46.070;13.222;2023-01-23T04:50:36;2.25;;;2.00;;
23376;SDS011;14353;46.070;13.222;2023-01-23T04:53:02;3.30;;;2.30;;
23376;SDS011;14353;46.070;13.222;2023-01-23T04:55:28;2.85;;;2.35;;
23376;SDS011;14353;46.070;13.222;2023-01-23T04:57:54;4.15;;;2.05;;
23376;SDS011;14353;46.070;13.222;2023-01-23T05:00:20;2.17;;;1.98;;
23376;SDS011;14353;46.070;13.222;2023-01-23T05:02:49;2.80;;;2.00;;
23376;SDS011;14353;46.070;13.222;2023-01-23T05:05:16;2.75;;;2.17;;
23376;SDS011;14353;46.070;13.222;2023-01-23T05:07:44;2.40;;;2.10;;
23376;SDS011;14353;46.070;13.222;2023-01-23T05:10:11;2.35;;;1.95;;
23376;SDS011;14353;46.070;13.222;2023-01-23T05:12:37;1.95;;;1.83;;
23376;SDS011;14353;46.070;13.222;2023-01-23T05:15:03;2.38;;;2.08;;
23376;SDS011;14353;46.070;13.222;2023-01-23T05:17:29;2.80;;;1.95;;
23376;SDS011;14353;46.070;13.222;2023-01-23T05:19:55;2.38;;;2.05;;
23376;SDS011;14353;46.070;13.222;2023-01-23T05:22:21;2.35;;;2.10;;
23376;SDS011;14353;46.070;13.222;2023-01-23T05:24:47;2.85;;;2.20;;
23376;SDS011;14353;46.070;13.222;2023-01-23T05:27:13;2.10;;;1.90;;
23376;SDS011;14353;46.070;13.222;2023-01-23T05:29:38;2.20;;;2.00;;
23376;SDS011;14353;46.070;13.222;2023-01-23T05:32:04;2.50;;;2.03;;
23376;SDS011;14353;46.070;13.222;2023-01-23T05:34:30;2.10;;;1.90;;
23376;SDS011;14353;46.070;13.222;2023-01-23T05:36:56;2.20;;;2.00;;
23376;SDS011;14353;46.070;13.222;2023-01-23T05:39:21;2.05;;;1.85;;
23376;SDS011;14353;46.070;13.222;2023-01-23T05:41:47;2.40;;;2.00;;
23376;SDS011;14353;46.070;13.222;2023-01-23T05:44:13;2.35;;;1.95;;
23376;SDS011;14353;46.070;13.222;2023-01-23T05:46:39;2.15;;;1.80;;
23376;SDS011;14353;46.070;13.222;2023-01-23T05:49:04;2.33;;;2.00;;
23376;SDS011;14353;46.070;13.222;2023-01-23T05:51:30;2.40;;;2.13;;
23376;SDS011;14353;46.070;13.222;2023-01-23T05:53:58;2.38;;;1.85;;
23376;SDS011;14353;46.070;13.222;2023-01-23T05:56:25;2.10;;;1.90;;
23376;SDS011;14353;46.070;13.222;2023-01-23T05:58:51;2.40;;;2.00;;
23376;SDS011;14353;46.070;13.222;2023-01-23T06:01:17;2.10;;;1.90;;
23376;SDS011;14353;46.070;13.222;2023-01-23T06:03:43;1.90;;;1.70;;
23376;SDS011;14353;46.070;13.222;2023-01-23T06:06:09;2.33;;;1.88;;
23376;SDS011;14353;46.070;13.222;2023-01-23T06:08:35;1.98;;;1.77;;
23376;SDS011;14353;46.070;13.222;2023-01-23T06:11:00;1.90;;;1.67;;
23376;SDS011;14353;46.070;13.222;2023-01-23T06:13:27;2.17;;;1.92;;
23376;SDS011;14353;46.070;13.222;2023-01-23T06:15:54;1.98;;;1.70;;
23376;SDS011;14353;46.070;13.222;2023-01-23T06:18:20;2.20;;;1.90;;
23376;SDS011;14353;46.070;13.222;2023-01-23T06:20:46;2.13;;;1.88;;
23376;SDS011;14353;46.070;13.222;2023-01-23T06:23:12;1.88;;;1.70;;
23376;SDS011;14353;46.070;13.222;2023-01-23T06:25:38;2.13;;;1.80;;
23376;SDS011;14353;46.070;13.222;2023-01-23T06:28:04;2.10;;;1.73;;
23376;SDS011;14353;46.070;13.222;2023-01-23T06:30:30;2.47;;;1.73;;
23376;SDS011;14353;46.070;13.222;2023-01-23T06:32:56;3.40;;;1.83;;
23376;SDS011;14353;46.070;13.222;2023-01-23T06:35:21;1.77;;;1.67;;
23376;SDS011;14353;46.070;13.222;2023-01-23T06:37:47;2.25;;;1.80;;
23376;SDS011;14353;46.070;13.222;2023-01-23T06:40:13;5.03;;;1.98;;
23376;SDS011;14353;46.070;13.222;2023-01-23T06:42:39;3.05;;;1.70;;
23376;SDS011;14353;46.070;13.222;2023-01-23T06:45:06;5.20;;;1.85;;
23376;SDS011;14353;46.070;13.222;2023-01-23T06:47:33;5.47;;;2.17;;
23376;SDS011;14353;46.070;13.222;2023-01-23T06:49:59;4.35;;;1.95;;
23376;SDS011;14353;46.070;13.222;2023-01-23T06:52:28;3.33;;;1.80;;
23376;SDS011;14353;46.070;13.222;2023-01-23T06:54:54;3.50;;;1.80;;
23376;SDS011;14353;46.070;13.222;2023-01-23T06:57:19;2.67;;;1.55;;
23376;SDS011;14353;46.070;13.222;2023-01-23T06:59:45;2.50;;;1.83;;
23376;SDS011;14353;46.070;13.222;2023-01-23T07:02:11;4.18;;;1.88;;
23376;SDS011;14353;46.070;13.222;2023-01-23T07:04:38;3.40;;;1.80;;
23376;SDS011;14353;46.070;13.222;2023-01-23T07:07:04;8.02;;;1.90;;
23376;SDS011;14353;46.070;13.222;2023-01-23T07:09:30;6.97;;;1.92;;
23376;SDS011;14353;46.070;13.222;2023-01-23T07:11:56;3.63;;;1.80;;
23376;SDS011;14353;46.070;13.222;2023-01-23T07:14:22;5.80;;;1.88;;
23376;SDS011;14353;46.070;13.222;2023-01-23T07:16:48;6.93;;;1.98;;
23376;SDS011;14353;46.070;13.222;2023-01-23T07:19:13;3.83;;;2.08;;
23376;SDS011;14353;46.070;13.222;2023-01-23T07:21:39;6.38;;;1.80;;
23376;SDS011;14353;46.070;13.222;2023-01-23T07:24:05;10.98;;;2.17;;
23376;SDS011;14353;46.070;13.222;2023-01-23T07:26:31;6.47;;;2.13;;
23376;SDS011;14353;46.070;13.222;2023-01-23T07:28:57;5.45;;;1.95;;
23376;SDS011;14353;46.070;13.222;2023-01-23T07:31:23;8.10;;;1.98;;
23376;SDS011;14353;46.070;13.222;2023-01-23T07:33:49;6.30;;;1.70;;
23376;SDS011;14353;46.070;13.222;2023-01-23T07:36:15;5.05;;;2.15;;
23376;SDS011;14353;46.070;13.222;2023-01-23T07:38:42;4.70;;;1.80;;
23376;SDS011;14353;46.070;13.222;2023-01-23T07:41:08;7.68;;;2.28;;
23376;SDS011;14353;46.070;13.222;2023-01-23T07:43:34;7.25;;;2.05;;
23376;SDS011;14353;46.070;13.222;2023-01-23T07:45:59;3.90;;;2.08;;
23376;SDS011;14353;46.070;13.222;2023-01-23T07:48:26;4.18;;;1.95;;
23376;SDS011;14353;46.070;13.222;2023-01-23T07:50:53;5.70;;;2.00;;
23376;SDS011;14353;46.070;13.222;2023-01-23T07:53:19;4.50;;;2.20;;
23376;SDS011;14353;46.070;13.222;2023-01-23T07:55:45;3.22;;;2.13;;
23376;SDS011;14353;46.070;13.222;2023-01-23T07:58:10;5.53;;;2.00;;
23376;SDS011;14353;46.070;13.222;2023-01-23T08:00:36;8.45;;;2.20;;
23376;SDS011;14353;46.070;13.222;2023-01-23T08:03:03;4.65;;;2.60;;
23376;SDS011;14353;46.070;13.222;2023-01-23T08:05:28;7.10;;;2.60;;
23376;SDS011;14353;46.070;13.222;2023-01-23T08:07:54;5.32;;;2.53;;
23376;SDS011;14353;46.070;13.222;2023-01-23T08:10:20;5.57;;;2.60;;
23376;SDS011;14353;46.070;13.222;2023-01-23T08:12:46;6.80;;;2.88;;
23376;SDS011;14353;46.070;13.222;2023-01-23T08:15:11;5.57;;;2.50;;
23376;SDS011;14353;46.070;13.222;2023-01-23T08:17:38;4.97;;;2.60;;
23376;SDS011;14353;46.070;13.222;2023-01-23T08:20:04;4.30;;;2.60;;
23376;SDS011;14353;46.070;13.222;2023-01-23T08:22:30;12.07;;;2.53;;
23376;SDS011;14353;46.070;13.222;2023-01-23T08:24:57;5.80;;;2.50;;
23376;SDS011;14353;46.070;13.222;2023-01-23T08:27:23;4.65;;;2.25;;
23376;SDS011;14353;46.070;13.222;2023-01-23T08:29:48;4.78;;;2.38;;
23376;SDS011;14353;46.070;13.222;2023-01-23T08:32:14;9.25;;;2.47;;
23376;SDS011;14353;46.070;13.222;2023-01-23T08:34:40;4.10;;;1.77;;
23376;SDS011;14353;46.070;13.222;2023-01-23T08:37:05;3.40;;;1.85;;
23376;SDS011;14353;46.070;13.222;2023-01-23T08:39:31;5.10;;;2.10;;
23376;SDS011;14353;46.070;13.222;2023-01-23T08:41:57;4.28;;;1.92;;
23376;SDS011;14353;46.070;13.222;2023-01-23T08:44:22;3.00;;;1.75;;
23376;SDS011;14353;46.070;13.222;2023-01-23T08:46:48;5.32;;;1.88;;
23376;SDS011;14353;46.070;13.222;2023-01-23T08:49:14;6.43;;;2.10;;
23376;SDS011;14353;46.070;13.222;2023-01-23T08:51:43;3.65;;;1.95;;
23376;SDS011;14353;46.070;13.222;2023-01-23T08:54:09;4.75;;;2.00;;
23376;SDS011;14353;46.070;13.222;2023-01-23T08:56:34;4.00;;;2.20;;
23376;SDS011;14353;46.070;13.222;2023-01-23T08:59:07;3.75;;;2.20;;
23376;SDS011;14353;46.070;13.222;2023-01-23T09:01:33;6.60;;;2.03;;
23376;SDS011;14353;46.070;13.222;2023-01-23T09:03:58;4.00;;;2.25;;
23376;SDS011;14353;46.070;13.222;2023-01-23T09:06:24;6.97;;;2.08;;
23376;SDS011;14353;46.070;13.222;2023-01-23T09:08:50;5.40;;;2.20;;
23376;SDS011;14353;46.070;13.222;2023-01-23T09:11:16;4.20;;;2.10;;
23376;SDS011;14353;46.070;13.222;2023-01-23T09:13:44;6.40;;;2.00;;
23376;SDS011;14353;46.070;13.222;2023-01-23T09:16:10;4.78;;;2.30;;
23376;SDS011;14353;46.070;13.222;2023-01-23T09:18:36;5.38;;;1.90;;
23376;SDS011;14353;46.070;13.222;2023-01-23T09:21:06;6.40;;;2.05;;
23376;SDS011;14353;46.070;13.222;2023-01-23T09:23:33;5.85;;;2.20;;
23376;SDS011;14353;46.070;13.222;2023-01-23T09:26:02;3.78;;;2.03;;
23376;SDS011;14353;46.070;13.222;2023-01-23T09:28:29;3.83;;;1.95;;
23376;SDS011;14353;46.070;13.222;2023-01-23T09:30:55;5.30;;;1.75;;
23376;SDS011;14353;46.070;13.222;2023-01-23T09:33:21;3.30;;;1.95;;
23376;SDS011;14353;46.070;13.222;2023-01-23T09:35:51;2.75;;;1.77;;
23376;SDS011;14353;46.070;13.222;2023-01-23T09:38:17;3.08;;;1.83;;
23376;SDS011;14353;46.070;13.222;2023-01-23T09:40:49;2.90;;;1.73;;
23376;SDS011;14353;46.070;13.222;2023-01-23T09:45:48;4.88;;;1.67;;
23376;SDS011;14353;46.070;13.222;2023-01-23T09:48:23;3.40;;;1.80;;
23376;SDS011;14353;46.070;13.222;2023-01-23T09:50:58;2.55;;;1.58;;
23376;SDS011;14353;46.070;13.222;2023-01-23T09:53:38;3.28;;;1.70;;
23376;SDS011;14353;46.070;13.222;2023-01-23T09:58:58;2.50;;;1.60;;
23376;SDS011;14353;46.070;13.222;2023-01-23T10:01:35;4.65;;;1.83;;
23376;SDS011;14353;46.070;13.222;2023-01-23T10:04:02;2.85;;;1.63;;
23376;SDS011;14353;46.070;13.222;2023-01-23T10:06:29;4.38;;;1.50;;
23376;SDS011;14353;46.070;13.222;2023-01-23T10:12:00;9.32;;;1.52;;
23376;SDS011;14353;46.070;13.222;2023-01-23T10:17:11;6.38;;;1.65;;
23376;SDS011;14353;46.070;13.222;2023-01-23T10:25:29;5.47;;;1.63;;
23376;SDS011;14353;46.070;13.222;2023-01-23T10:28:04;4.88;;;1.63;;
23376;SDS011;14353;46.070;13.222;2023-01-23T10:30:57;8.27;;;1.60;;
23376;SDS011;14353;46.070;13.222;2023-01-23T10:33:35;12.85;;;1.92;;
23376;SDS011;14353;46.070;13.222;2023-01-23T10:36:18;11.98;;;1.80;;
23376;SDS011;14353;46.070;13.222;2023-01-23T10:38:59;13.27;;;1.90;;
23376;SDS011;14353;46.070;13.222;2023-01-23T10:41:38;15.27;;;2.00;;
23376;SDS011;14353;46.070;13.222;2023-01-23T10:44:04;6.85;;;1.83;;
23376;SDS011;14353;46.070;13.222;2023-01-23T10:46:51;8.20;;;2.08;;
23376;SDS011;14353;46.070;13.222;2023-01-23T10:49:35;13.63;;;2.08;;
23376;SDS011;14353;46.070;13.222;2023-01-23T10:52:27;12.15;;;1.95;;
23376;SDS011;14353;46.070;13.222;2023-01-23T10:54:54;10.07;;;1.85;;
23376;SDS011;14353;46.070;13.222;2023-01-23T10:57:22;14.50;;;1.90;;
23376;SDS011;14353;46.070;13.222;2023-01-23T11:00:33;13.73;;;2.17;;
23376;SDS011;14353;46.070;13.222;2023-01-23T11:02:54;6.70;;;1.35;;
23376;SDS011;14353;46.070;13.222;2023-01-23T11:05:38;12.73;;;1.70;;
23376;SDS011;14353;46.070;13.222;2023-01-23T11:08:21;12.07;;;2.30;;
23376;SDS011;14353;46.070;13.222;2023-01-23T11:10:49;7.03;;;1.88;;
23376;SDS011;14353;46.070;13.222;2023-01-23T11:13:28;13.30;;;1.63;;
23376;SDS011;14353;46.070;13.222;2023-01-23T11:15:54;11.00;;;1.85;;
23376;SDS011;14353;46.070;13.222;2023-01-23T11:18:27;14.52;;;1.77;;
23376;SDS011;14353;46.070;13.222;2023-01-23T11:20:54;16.10;;;2.33;;
23376;SDS011;14353;46.070;13.222;2023-01-23T11:23:20;11.13;;;1.85;;
23376;SDS011;14353;46.070;13.222;2023-01-23T11:25:49;13.05;;;2.13;;
23376;SDS011;14353;46.070;13.222;2023-01-23T11:28:17;10.23;;;1.90;;
23376;SDS011;14353;46.070;13.222;2023-01-23T11:33:56;8.68;;;2.05;;
23376;SDS011;14353;46.070;13.222;2023-01-23T11:42:15;8.68;;;1.77;;
23376;SDS011;14353;46.070;13.222;2023-01-23T11:44:42;8.25;;;2.08;;
23376;SDS011;14353;46.070;13.222;2023-01-23T11:52:49;6.35;;;1.70;;
23376;SDS011;14353;46.070;13.222;2023-01-23T11:55:57;5.30;;;1.33;;
23376;SDS011;14353;46.070;13.222;2023-01-23T12:07:20;5.25;;;1.42;;
23376;SDS011;14353;46.070;13.222;2023-01-23T12:17:42;5.75;;;1.50;;
23376;SDS011;14353;46.070;13.222;2023-01-23T12:23:21;4.05;;;1.20;;
23376;SDS011;14353;46.070;13.222;2023-01-23T12:26:17;3.70;;;1.33;;
23376;SDS011;14353;46.070;13.222;2023-01-23T12:44:57;15.02;;;1.50;;
23376;SDS011;14353;46.070;13.222;2023-01-23T12:47:36;4.60;;;1.20;;
23376;SDS011;14353;46.070;13.222;2023-01-23T12:50:37;7.30;;;1.30;;
23376;SDS011;14353;46.070;13.222;2023-01-23T12:53:17;3.80;;;1.10;;
23376;SDS011;14353;46.070;13.222;2023-01-23T12:55:52;3.70;;;1.40;;
23376;SDS011;14353;46.070;13.222;2023-01-23T12:58:19;4.72;;;1.30;;
23376;SDS011;14353;46.070;13.222;2023-01-23T13:06:14;8.02;;;1.27;;
23376;SDS011;14353;46.070;13.222;2023-01-23T13:08:54;3.58;;;1.38;;
23376;SDS011;14353;46.070;13.222;2023-01-23T13:16:57;3.75;;;1.40;;
23376;SDS011;14353;46.070;13.222;2023-01-23T13:19:38;3.88;;;1.27;;
23376;SDS011;14353;46.070;13.222;2023-01-23T13:22:24;8.15;;;1.40;;
23376;SDS011;14353;46.070;13.222;2023-01-23T13:27:43;4.60;;;1.33;;
23376;SDS011;14353;46.070;13.222;2023-01-23T13:55:13;4.20;;;1.10;;
23376;SDS011;14353;46.070;13.222;2023-01-23T13:58:09;1.88;;;0.90;;
23376;SDS011;14353;46.070;13.222;2023-01-23T14:00:39;2.83;;;1.05;;
23376;SDS011;14353;46.070;13.222;2023-01-23T14:06:02;7.15;;;1.10;;
23376;SDS011;14353;46.070;13.222;2023-01-23T14:08:32;9.65;;;1.00;;
23376;SDS011;14353;46.070;13.222;2023-01-23T14:10:58;6.25;;;1.10;;
23376;SDS011;14353;46.070;13.222;2023-01-23T14:13:26;11.07;;;1.30;;
23376;SDS011;14353;46.070;13.222;2023-01-23T14:15:53;10.35;;;1.20;;
23376;SDS011;14353;46.070;13.222;2023-01-23T14:18:36;4.32;;;0.80;;
23376;SDS011;14353;46.070;13.222;2023-01-23T14:21:31;10.73;;;1.00;;
23376;SDS011;14353;46.070;13.222;2023-01-23T14:24:18;2.95;;;1.27;;
23376;SDS011;14353;46.070;13.222;2023-01-23T14:26:48;6.50;;;0.90;;
23376;SDS011;14353;46.070;13.222;2023-01-23T14:31:47;3.20;;;0.88;;
23376;SDS011;14353;46.070;13.222;2023-01-23T14:34:16;3.85;;;1.10;;
23376;SDS011;14353;46.070;13.222;2023-01-23T14:36:44;6.90;;;0.82;;
23376;SDS011;14353;46.070;13.222;2023-01-23T14:39:28;4.65;;;0.98;;
23376;SDS011;14353;46.070;13.222;2023-01-23T14:41:57;6.97;;;0.88;;
23376;SDS011;14353;46.070;13.222;2023-01-23T14:47:02;3.58;;;1.10;;
23376;SDS011;14353;46.070;13.222;2023-01-23T14:49:30;6.45;;;1.00;;
23376;SDS011;14353;46.070;13.222;2023-01-23T14:52:00;3.13;;;0.82;;
23376;SDS011;14353;46.070;13.222;2023-01-23T14:54:29;4.57;;;0.73;;
23376;SDS011;14353;46.070;13.222;2023-01-23T14:56:56;4.30;;;0.80;;
23376;SDS011;14353;46.070;13.222;2023-01-23T14:59:31;3.38;;;0.90;;
23376;SDS011;14353;46.070;13.222;2023-01-23T15:10:46;5.53;;;0.93;;
23376;SDS011;14353;46.070;13.222;2023-01-23T15:19:03;3.20;;;0.80;;
23376;SDS011;14353;46.070;13.222;2023-01-23T15:26:38;5.30;;;0.90;;
23376;SDS011;14353;46.070;13.222;2023-01-23T15:44:35;3.72;;;0.90;;
23376;SDS011;14353;46.070;13.222;2023-01-23T15:47:02;3.75;;;0.85;;
23376;SDS011;14353;46.070;13.222;2023-01-23T15:49:29;2.53;;;0.93;;
23376;SDS011;14353;46.070;13.222;2023-01-23T15:51:56;5.38;;;0.90;;
23376;SDS011;14353;46.070;13.222;2023-01-23T15:54:31;5.13;;;0.80;;
23376;SDS011;14353;46.070;13.222;2023-01-23T15:57:00;2.17;;;0.50;;
23376;SDS011;14353;46.070;13.222;2023-01-23T15:59:26;2.70;;;0.75;;
23376;SDS011;14353;46.070;13.222;2023-01-23T16:01:53;1.63;;;0.85;;
23376;SDS011;14353;46.070;13.222;2023-01-23T16:04:19;1.85;;;0.80;;
23376;SDS011;14353;46.070;13.222;2023-01-23T16:06:45;1.55;;;0.55;;
23376;SDS011;14353;46.070;13.222;2023-01-23T16:09:21;3.83;;;0.95;;
23376;SDS011;14353;46.070;13.222;2023-01-23T16:11:51;1.60;;;0.60;;
23376;SDS011;14353;46.070;13.222;2023-01-23T16:14:18;1.30;;;0.70;;
23376;SDS011;14353;46.070;13.222;2023-01-23T16:16:44;4.10;;;0.70;;
23376;SDS011;14353;46.070;13.222;2023-01-23T16:19:10;3.47;;;0.70;;
23376;SDS011;14353;46.070;13.222;2023-01-23T16:21:36;1.98;;;0.68;;
23376;SDS011;14353;46.070;13.222;2023-01-23T16:24:02;3.42;;;0.50;;
23376;SDS011;14353;46.070;13.222;2023-01-23T16:26:28;3.03;;;0.65;;
23376;SDS011;14353;46.070;13.222;2023-01-23T16:28:55;1.73;;;0.70;;
23376;SDS011;14353;46.070;13.222;2023-01-23T16:31:21;2.88;;;0.75;;
23376;SDS011;14353;46.070;13.222;2023-01-23T16:33:47;2.55;;;0.70;;
23376;SDS011;14353;46.070;13.222;2023-01-23T16:36:13;1.63;;;0.60;;
23376;SDS011;14353;46.070;13.222;2023-01-23T16:38:40;1.58;;;0.70;;
23376;SDS011;14353;46.070;13.222;2023-01-23T16:41:12;3.85;;;0.80;;
23376;SDS011;14353;46.070;13.222;2023-01-23T16:43:37;2.08;;;0.60;;
23376;SDS011;14353;46.070;13.222;2023-01-23T16:46:04;1.80;;;0.70;;
23376;SDS011;14353;46.070;13.222;2023-01-23T16:48:29;3.03;;;0.77;;
23376;SDS011;14353;46.070;13.222;2023-01-23T16:50:56;2.05;;;0.93;;
23376;SDS011;14353;46.070;13.222;2023-01-23T16:53:28;1.55;;;0.70;;
23376;SDS011;14353;46.070;13.222;2023-01-23T16:55:58;3.80;;;0.63;;
23376;SDS011;14353;46.070;13.222;2023-01-23T16:58:26;1.25;;;0.70;;
23376;SDS011;14353;46.070;13.222;2023-01-23T17:01:17;2.65;;;0.63;;
23376;SDS011;14353;46.070;13.222;2023-01-23T17:03:44;1.58;;;0.70;;
23376;SDS011;14353;46.070;13.222;2023-01-23T17:06:26;1.88;;;0.63;;
23376;SDS011;14353;46.070;13.222;2023-01-23T17:08:52;1.77;;;0.90;;
23376;SDS011;14353;46.070;13.222;2023-01-23T17:11:39;1.30;;;0.63;;
23376;SDS011;14353;46.070;13.222;2023-01-23T17:16:38;1.27;;;0.70;;
23376;SDS011;14353;46.070;13.222;2023-01-23T17:19:05;2.65;;;0.75;;
23376;SDS011;14353;46.070;13.222;2023-01-23T17:21:54;1.13;;;0.52;;
23376;SDS011;14353;46.070;13.222;2023-01-23T17:24:24;1.42;;;0.52;;
23376;SDS011;14353;46.070;13.222;2023-01-23T17:26:50;2.13;;;0.50;;
23376;SDS011;14353;46.070;13.222;2023-01-23T17:29:16;0.90;;;0.40;;
23376;SDS011;14353;46.070;13.222;2023-01-23T17:31:41;0.77;;;0.60;;